Time;durP1;ratioP1;P1;durP2;ratioP2;P2;SDS_P1;SDS_P2;PMS_P1;PMS_P2;Temp;Humidity;BMP_temperature;BMP_pressure;BME280_temperature;BME280_humidity;BME280_pressure;Samples;Min_cycle;Max_cycle;Signal;HPM_P1;HPM_P2
2021/08/29 00:02:16;;;;;;;11.63;4.75;;;15.70;99.90;;;;;;5013442;28;25073;-74
2021/08/29 00:04:42;;;;;;;11.48;5.32;;;15.70;99.90;;;;;;5012511;28;25067;-71
2021/08/29 00:07:07;;;;;;;13.10;4.93;;;15.70;99.90;;;;;;5013386;28;25114;-72
2021/08/29 00:09:34;;;;;;;15.45;5.78;;;15.70;99.90;;;;;;5012266;28;25074;-71
2021/08/29 00:12:00;;;;;;;16.55;5.88;;;15.70;99.90;;;;;;5000680;28;25080;-72
2021/08/29 00:14:26;;;;;;;14.02;5.10;;;15.70;99.90;;;;;;5007291;28;25072;-74
2021/08/29 00:16:52;;;;;;;13.35;5.35;;;15.70;99.90;;;;;;5005912;28;25065;-73
2021/08/29 00:19:17;;;;;;;15.30;5.97;;;15.70;99.90;;;;;;5010521;28;25054;-71
2021/08/29 00:21:43;;;;;;;11.57;4.95;;;15.70;99.90;;;;;;4993224;28;25151;-72
2021/08/29 00:24:09;;;;;;;14.82;5.53;;;15.70;99.90;;;;;;5010326;28;25107;-73
2021/08/29 00:26:34;;;;;;;15.15;5.25;;;15.70;99.90;;;;;;5010804;28;25108;-72
2021/08/29 00:29:00;;;;;;;14.93;5.32;;;15.70;99.90;;;;;;5010044;28;25073;-72
2021/08/29 00:31:27;;;;;;;12.93;4.70;;;15.70;99.90;;;;;;5010926;28;25054;-74
2021/08/29 00:33:54;;;;;;;8.85;4.03;;;15.80;99.90;;;;;;4994423;28;25107;-71
2021/08/29 00:36:21;;;;;;;10.52;5.30;;;15.70;99.90;;;;;;5027249;28;25051;-75
2021/08/29 00:38:52;;;;;;;14.77;5.82;;;15.70;99.90;;;;;;5029814;28;25056;-73
2021/08/29 00:41:29;;;;;;;14.65;5.38;;;15.70;99.90;;;;;;5034859;28;25089;-74
2021/08/29 00:43:55;;;;;;;13.65;4.82;;;15.60;99.90;;;;;;5030443;28;25105;-72
2021/08/29 00:46:21;;;;;;;11.30;4.78;;;15.70;99.90;;;;;;5026205;28;25078;-73
2021/08/29 00:48:49;;;;;;;16.45;4.18;;;15.60;99.90;;;;;;5029853;28;25059;-73
2021/08/29 00:51:16;;;;;;;11.00;4.70;;;15.70;99.90;;;;;;5011348;28;25056;-73
2021/08/29 00:53:53;;;;;;;12.25;5.57;;;15.70;99.90;;;;;;5013291;28;25139;-73
2021/08/29 00:56:18;;;;;;;13.10;4.93;;;15.70;99.90;;;;;;5013720;28;25067;-73
2021/08/29 00:58:46;;;;;;;12.98;4.90;;;15.70;99.90;;;;;;5013227;28;25070;-74
2021/08/29 01:01:14;;;;;;;16.08;5.35;;;15.70;99.90;;;;;;5010660;28;25067;-72
2021/08/29 01:03:41;;;;;;;14.27;5.05;;;15.70;99.90;;;;;;5006750;28;25051;-73
2021/08/29 01:06:25;;;;;;;14.63;5.38;;;15.60;99.90;;;;;;5009959;28;25070;-73
2021/08/29 01:08:58;;;;;;;14.77;5.70;;;15.70;99.90;;;;;;4992181;28;25177;-72
2021/08/29 01:11:25;;;;;;;11.18;4.57;;;15.70;99.90;;;;;;5009395;28;25068;-72
2021/08/29 01:13:58;;;;;;;11.32;4.68;;;15.70;99.90;;;;;;5008834;28;25081;-73
2021/08/29 01:16:28;;;;;;;18.75;5.22;;;15.70;99.90;;;;;;5006212;28;25151;-71
2021/08/29 01:18:57;;;;;;;11.70;5.38;;;15.70;99.90;;;;;;5009732;28;25097;-73
2021/08/29 01:21:26;;;;;;;18.90;6.03;;;15.80;99.90;;;;;;5008652;28;25076;-73
2021/08/29 01:23:59;;;;;;;13.02;4.97;;;15.70;99.90;;;;;;5009298;28;25066;-72
2021/08/29 01:26:32;;;;;;;;;;;15.70;99.90;;;;;;5010930;28;25079;-72
2021/08/29 01:29:01;;;;;;;15.15;4.95;;;15.60;99.90;;;;;;5009291;28;25094;-72
2021/08/29 01:31:28;;;;;;;11.85;5.30;;;15.60;99.90;;;;;;4989381;28;25069;-73
2021/08/29 01:34:03;;;;;;;21.98;6.28;;;15.70;99.90;;;;;;5009342;28;25096;-72
2021/08/29 01:36:30;;;;;;;17.50;6.38;;;15.70;99.90;;;;;;5010092;28;25100;-73
2021/08/29 01:38:58;;;;;;;12.45;5.60;;;15.70;99.90;;;;;;5008119;28;25158;-73
2021/08/29 01:41:24;;;;;;;16.23;6.18;;;15.70;99.90;;;;;;5009326;28;25132;-72
2021/08/29 01:43:51;;;;;;;24.27;6.18;;;15.70;99.90;;;;;;5010390;28;25061;-73
2021/08/29 01:46:18;;;;;;;20.95;6.38;;;15.60;99.90;;;;;;5010677;28;25115;-74
2021/08/29 01:48:45;;;;;;;12.13;5.60;;;15.60;99.90;;;;;;5004334;28;25087;-74
2021/08/29 01:51:11;;;;;;;16.17;5.38;;;15.60;99.90;;;;;;5011072;28;25052;-74
2021/08/29 01:53:38;;;;;;;13.48;5.90;;;15.70;99.90;;;;;;5010286;28;25150;-73
2021/08/29 01:56:06;;;;;;;20.60;6.47;;;15.70;99.90;;;;;;5009646;28;25064;-72
2021/08/29 01:58:32;;;;;;;13.43;5.13;;;15.70;99.90;;;;;;5013717;28;25054;-72
2021/08/29 02:01:00;;;;;;;13.25;5.85;;;15.70;99.90;;;;;;5016621;28;25073;-73
2021/08/29 02:03:27;;;;;;;14.90;5.78;;;15.70;99.90;;;;;;5013913;28;25180;-72
2021/08/29 02:06:22;;;;;;;17.88;6.93;;;15.70;99.90;;;;;;5012832;28;25136;-72
2021/08/29 02:09:01;;;;;;;15.90;5.32;;;15.70;99.90;;;;;;4983668;28;25133;-73
2021/08/29 02:11:30;;;;;;;18.55;5.50;;;15.70;99.90;;;;;;5015579;28;25063;-72
2021/08/29 02:14:01;;;;;;;13.57;5.63;;;15.80;99.90;;;;;;5016120;28;25053;-71
2021/08/29 02:16:27;;;;;;;12.50;5.47;;;15.80;99.90;;;;;;5015885;28;25070;-73
2021/08/29 02:18:55;;;;;;;13.23;5.35;;;15.70;99.90;;;;;;5014731;28;25064;-74
2021/08/29 02:21:26;;;;;;;13.57;5.90;;;15.70;99.90;;;;;;5015307;28;25066;-75
2021/08/29 02:23:52;;;;;;;14.35;5.75;;;15.70;99.90;;;;;;5015075;28;25088;-73
2021/08/29 02:26:21;;;;;;;17.45;6.25;;;15.70;99.90;;;;;;5015378;28;25078;-74
2021/08/29 02:28:47;;;;;;;17.75;6.22;;;15.70;99.90;;;;;;5015148;28;25073;-72
2021/08/29 02:31:13;;;;;;;13.45;4.90;;;15.70;99.90;;;;;;5017182;28;25080;-73
2021/08/29 02:33:38;;;;;;;16.95;5.25;;;15.80;99.90;;;;;;5017135;28;25143;-72
2021/08/29 02:36:05;;;;;;;13.25;5.05;;;15.80;99.90;;;;;;5015808;28;25109;-74
2021/08/29 02:38:30;;;;;;;10.32;4.97;;;15.80;99.90;;;;;;5015103;28;25059;-71
2021/08/29 02:40:58;;;;;;;18.42;5.03;;;15.80;99.90;;;;;;5015611;28;25495;-71
2021/08/29 02:43:25;;;;;;;9.18;4.95;;;15.80;99.90;;;;;;5015112;28;25071;-69
2021/08/29 02:45:52;;;;;;;12.70;5.65;;;15.80;99.90;;;;;;5015522;28;25075;-73
2021/08/29 02:48:18;;;;;;;11.88;4.75;;;15.80;99.90;;;;;;5014593;28;25082;-73
2021/08/29 02:50:47;;;;;;;11.65;5.13;;;15.80;99.90;;;;;;5015195;28;25072;-74
2021/08/29 02:53:16;;;;;;;9.30;4.55;;;15.80;99.90;;;;;;5014353;28;25058;-72
2021/08/29 02:55:52;;;;;;;15.70;5.10;;;15.80;99.90;;;;;;5015374;28;25058;-72
2021/08/29 02:58:19;;;;;;;12.52;4.68;;;15.90;99.90;;;;;;5009097;28;25159;-74
2021/08/29 03:00:44;;;;;;;10.20;4.95;;;15.90;99.90;;;;;;4996941;28;25064;-73
2021/08/29 03:03:11;;;;;;;17.77;5.40;;;15.90;99.90;;;;;;5015453;28;25108;-74
2021/08/29 03:05:37;;;;;;;13.85;5.10;;;15.90;99.90;;;;;;5015870;28;25055;-74
2021/08/29 03:08:03;;;;;;;11.15;4.97;;;15.80;99.90;;;;;;5015374;28;25074;-75
2021/08/29 03:10:30;;;;;;;10.10;5.18;;;15.70;99.90;;;;;;5010901;28;25079;-70
2021/08/29 03:12:57;;;;;;;14.85;5.00;;;15.70;99.90;;;;;;5012418;28;25087;-75
2021/08/29 03:15:24;;;;;;;13.65;5.05;;;15.70;99.90;;;;;;5012601;28;25095;-74
2021/08/29 03:17:49;;;;;;;11.88;5.07;;;15.80;99.90;;;;;;5011034;28;25072;-73
2021/08/29 03:20:16;;;;;;;9.30;4.78;;;15.80;99.90;;;;;;5011971;28;25058;-71
2021/08/29 03:22:43;;;;;;;12.13;5.05;;;15.80;99.90;;;;;;5011095;28;25066;-72
2021/08/29 03:25:09;;;;;;;9.85;4.93;;;15.70;99.90;;;;;;5011856;28;25086;-73
2021/08/29 03:27:35;;;;;;;10.43;4.50;;;15.70;99.90;;;;;;5012109;28;25164;-72
2021/08/29 03:30:00;;;;;;;8.77;4.35;;;15.70;99.90;;;;;;5011945;28;25104;-72
2021/08/29 03:32:26;;;;;;;12.27;4.65;;;15.70;99.90;;;;;;5011129;28;25090;-72
2021/08/29 03:35:00;;;;;;;10.50;5.13;;;15.80;99.90;;;;;;5012912;28;25045;-75
2021/08/29 03:37:27;;;;;;;12.25;4.88;;;15.80;99.90;;;;;;5009774;28;25067;-72
2021/08/29 03:39:58;;;;;;;10.63;5.00;;;15.80;99.90;;;;;;5017602;28;25079;-72
2021/08/29 03:42:26;;;;;;;13.20;5.38;;;15.70;99.90;;;;;;5003188;28;25101;-74
2021/08/29 03:44:52;;;;;;;9.25;4.50;;;15.70;99.90;;;;;;5032322;28;25056;-72
2021/08/29 03:47:18;;;;;;;8.48;5.13;;;15.70;99.90;;;;;;5028153;28;25070;-72
2021/08/29 03:49:45;;;;;;;11.40;4.60;;;15.70;99.90;;;;;;5014124;28;25084;-72
2021/08/29 03:52:13;;;;;;;14.48;5.18;;;15.70;99.90;;;;;;5011789;28;25076;-69
2021/08/29 03:54:41;;;;;;;10.98;5.70;;;15.70;99.90;;;;;;5012304;28;25056;-74
2021/08/29 03:57:07;;;;;;;10.88;4.68;;;15.70;99.90;;;;;;5009949;28;25068;-73
2021/08/29 03:59:33;;;;;;;14.10;4.82;;;15.70;99.90;;;;;;5010958;28;25104;-72
2021/08/29 04:01:59;;;;;;;7.40;4.32;;;15.70;99.90;;;;;;5010679;28;25061;-71
2021/08/29 04:04:25;;;;;;;7.22;4.35;;;15.70;99.90;;;;;;5011082;28;25083;-73
2021/08/29 04:06:54;;;;;;;12.20;4.68;;;15.70;99.90;;;;;;5012215;28;25065;-72
2021/08/29 04:09:21;;;;;;;8.90;3.80;;;15.70;99.90;;;;;;5011389;28;25105;-72
2021/08/29 04:11:48;;;;;;;14.70;4.43;;;15.70;99.90;;;;;;5009053;28;25059;-73
2021/08/29 04:14:14;;;;;;;11.05;4.63;;;15.70;99.90;;;;;;5006738;28;25077;-76
2021/08/29 04:16:40;;;;;;;13.07;4.40;;;15.70;99.90;;;;;;5001788;28;25110;-72
2021/08/29 04:19:07;;;;;;;9.35;4.30;;;15.70;99.90;;;;;;5010316;28;25067;-75
2021/08/29 04:21:33;;;;;;;12.70;4.47;;;15.70;99.90;;;;;;5011762;28;25096;-73
2021/08/29 04:23:59;;;;;;;14.68;4.80;;;15.70;99.90;;;;;;5009711;28;25095;-73
2021/08/29 04:26:25;;;;;;;10.45;4.80;;;15.70;99.90;;;;;;5010663;28;25103;-72
2021/08/29 04:28:50;;;;;;;12.90;4.13;;;15.70;99.90;;;;;;5009459;28;25079;-73
2021/08/29 04:31:27;;;;;;;14.88;4.72;;;15.80;99.90;;;;;;5011077;28;25077;-74
2021/08/29 04:33:53;;;;;;;13.52;4.18;;;15.80;99.90;;;;;;5011944;28;25068;-71
2021/08/29 04:36:18;;;;;;;12.38;4.78;;;15.80;99.90;;;;;;5013112;28;25055;-72
2021/08/29 04:38:44;;;;;;;14.30;4.28;;;15.80;99.90;;;;;;5011211;28;25081;-74
2021/08/29 04:41:12;;;;;;;10.88;4.78;;;15.70;99.90;;;;;;5008282;28;25050;-73
2021/08/29 04:43:37;;;;;;;14.73;4.13;;;15.70;99.90;;;;;;5009205;28;25136;-71
2021/08/29 04:46:04;;;;;;;11.75;4.25;;;15.70;99.90;;;;;;5009509;28;25122;-73
2021/08/29 04:48:31;;;;;;;12.45;4.68;;;15.70;99.90;;;;;;5008599;28;25072;-72
2021/08/29 04:50:58;;;;;;;14.10;4.75;;;15.70;99.90;;;;;;5009289;28;25061;-73
2021/08/29 04:53:24;;;;;;;11.43;3.83;;;15.80;99.90;;;;;;5009608;28;25080;-71
2021/08/29 04:55:50;;;;;;;11.82;3.70;;;15.70;99.90;;;;;;5010021;28;25073;-73
2021/08/29 04:58:17;;;;;;;16.15;3.90;;;15.70;99.90;;;;;;5008513;28;25166;-73
2021/08/29 05:00:42;;;;;;;13.20;3.55;;;15.70;99.90;;;;;;5010302;28;25073;-73
2021/08/29 05:03:08;;;;;;;16.00;5.05;;;15.70;99.90;;;;;;5008885;28;25142;-73
2021/08/29 05:05:34;;;;;;;13.60;4.78;;;15.70;99.90;;;;;;5009990;28;25084;-74
2021/08/29 05:08:00;;;;;;;8.80;4.22;;;15.80;99.90;;;;;;5010047;28;25088;-71
2021/08/29 05:10:27;;;;;;;14.98;4.43;;;15.80;99.90;;;;;;5009003;28;25174;-72
2021/08/29 05:12:53;;;;;;;10.90;3.72;;;15.70;99.90;;;;;;5009891;28;25150;-72
2021/08/29 05:15:18;;;;;;;11.95;4.38;;;15.80;99.90;;;;;;5009846;28;25163;-73
2021/08/29 05:17:44;;;;;;;13.98;3.65;;;15.80;99.90;;;;;;5008256;28;25061;-72
2021/08/29 05:20:10;;;;;;;10.77;3.97;;;15.80;99.90;;;;;;5010428;28;25054;-75
2021/08/29 05:22:37;;;;;;;12.48;3.95;;;15.80;99.90;;;;;;5011370;28;25059;-73
2021/08/29 05:25:03;;;;;;;16.17;3.95;;;15.80;99.90;;;;;;5010432;28;25065;-72
2021/08/29 05:27:29;;;;;;;16.13;4.32;;;15.80;99.90;;;;;;5012263;28;25075;-72
2021/08/29 05:29:55;;;;;;;9.45;4.45;;;15.80;99.90;;;;;;5009542;28;25120;-72
2021/08/29 05:32:20;;;;;;;18.35;5.13;;;15.80;99.90;;;;;;5008850;28;25068;-73
2021/08/29 05:34:48;;;;;;;13.07;4.00;;;15.90;99.90;;;;;;5010017;28;25070;-71
2021/08/29 05:37:13;;;;;;;16.40;4.40;;;15.90;99.90;;;;;;5007116;28;25106;-71
2021/08/29 05:39:39;;;;;;;14.13;4.53;;;15.90;99.90;;;;;;5008811;28;25075;-73
2021/08/29 05:42:05;;;;;;;17.80;4.60;;;15.90;99.90;;;;;;5002246;28;25070;-72
2021/08/29 05:44:31;;;;;;;13.13;4.20;;;15.90;99.90;;;;;;5013403;28;25067;-72
2021/08/29 05:46:56;;;;;;;14.48;4.50;;;15.80;99.90;;;;;;5012841;28;25060;-71
2021/08/29 05:49:22;;;;;;;12.00;4.38;;;15.90;99.90;;;;;;5011389;28;25121;-72
2021/08/29 05:51:48;;;;;;;15.93;4.80;;;15.90;99.90;;;;;;5011151;28;25105;-68
2021/08/29 05:54:14;;;;;;;16.27;4.22;;;15.90;99.90;;;;;;4991296;28;25090;-72
2021/08/29 05:56:40;;;;;;;14.55;3.90;;;15.90;99.90;;;;;;5007975;28;25153;-70
2021/08/29 05:59:05;;;;;;;15.25;4.05;;;15.90;99.90;;;;;;4991808;28;25131;-73
2021/08/29 06:01:31;;;;;;;12.00;4.38;;;15.90;99.90;;;;;;5008687;28;25114;-71
2021/08/29 06:03:56;;;;;;;15.60;4.00;;;15.90;99.90;;;;;;5011690;28;25049;-74
2021/08/29 06:06:22;;;;;;;15.30;4.55;;;15.90;99.90;;;;;;5011720;28;25118;-72
2021/08/29 06:08:47;;;;;;;15.68;5.03;;;15.90;99.90;;;;;;5010904;28;25132;-72
2021/08/29 06:11:13;;;;;;;23.33;4.25;;;15.90;99.90;;;;;;5010940;28;25049;-72
2021/08/29 06:13:39;;;;;;;20.17;4.57;;;15.90;99.90;;;;;;5010187;28;25061;-74
2021/08/29 06:16:04;;;;;;;21.50;5.40;;;15.90;99.90;;;;;;5012731;28;25066;-74
2021/08/29 06:18:30;;;;;;;13.93;4.70;;;15.90;99.90;;;;;;5011486;28;25117;-73
2021/08/29 06:20:56;;;;;;;15.45;4.45;;;15.90;99.90;;;;;;5011458;28;25057;-73
2021/08/29 06:23:21;;;;;;;18.35;5.10;;;15.90;99.90;;;;;;5010667;28;25062;-75
2021/08/29 06:25:47;;;;;;;18.33;4.95;;;15.90;99.90;;;;;;5010037;28;25060;-74
2021/08/29 06:28:12;;;;;;;19.05;4.82;;;16.00;99.90;;;;;;5008481;28;25075;-71
2021/08/29 06:30:38;;;;;;;19.33;5.57;;;16.00;99.90;;;;;;5009578;28;25090;-73
2021/08/29 06:33:04;;;;;;;13.63;4.53;;;16.00;99.90;;;;;;5009919;28;25070;-71
2021/08/29 06:35:29;;;;;;;10.75;4.38;;;16.00;99.90;;;;;;5010147;28;25064;-72
2021/08/29 06:37:55;;;;;;;17.52;4.28;;;16.00;99.90;;;;;;5010893;28;25170;-72
2021/08/29 06:40:20;;;;;;;9.15;3.80;;;16.00;99.90;;;;;;5010755;28;25055;-72
2021/08/29 06:42:46;;;;;;;16.42;5.00;;;16.10;99.90;;;;;;5003716;28;25089;-73
2021/08/29 06:45:22;;;;;;;18.50;4.97;;;16.00;99.90;;;;;;5015497;28;25077;-72
2021/08/29 06:47:48;;;;;;;13.93;4.75;;;16.10;99.90;;;;;;5033040;28;25072;-73
2021/08/29 06:50:14;;;;;;;17.20;4.35;;;16.10;99.90;;;;;;5021248;28;25063;-73
2021/08/29 06:52:40;;;;;;;13.60;4.40;;;16.10;99.90;;;;;;5014290;28;25068;-73
2021/08/29 06:55:07;;;;;;;10.55;4.38;;;16.10;99.90;;;;;;5014161;28;25091;-72
2021/08/29 06:57:32;;;;;;;16.88;4.82;;;16.10;99.90;;;;;;5012578;28;25106;-73
2021/08/29 06:59:58;;;;;;;14.98;3.75;;;16.20;99.90;;;;;;5015018;28;25069;-73
2021/08/29 07:02:23;;;;;;;13.93;4.15;;;16.20;99.90;;;;;;5011097;28;25060;-73
2021/08/29 07:04:49;;;;;;;17.67;4.97;;;16.20;99.90;;;;;;5011326;28;25074;-70
2021/08/29 07:07:15;;;;;;;9.80;4.18;;;16.30;99.90;;;;;;4994453;28;25116;-74
2021/08/29 07:09:42;;;;;;;14.52;5.72;;;16.30;99.90;;;;;;5011988;28;25117;-74
2021/08/29 07:12:09;;;;;;;12.43;3.88;;;16.30;99.90;;;;;;5011505;28;25054;-72
2021/08/29 07:14:35;;;;;;;17.42;5.43;;;16.30;99.90;;;;;;5012930;28;25061;-73
2021/08/29 07:17:01;;;;;;;15.00;4.28;;;16.40;99.90;;;;;;5012807;28;25050;-72
2021/08/29 07:19:26;;;;;;;18.17;4.25;;;16.40;99.90;;;;;;5010267;28;25079;-72
2021/08/29 07:21:52;;;;;;;12.50;3.83;;;16.40;99.90;;;;;;5010076;28;25191;-73
2021/08/29 07:24:18;;;;;;;15.25;4.50;;;16.40;99.90;;;;;;5008699;28;25098;-73
2021/08/29 07:26:43;;;;;;;18.48;5.70;;;16.50;99.90;;;;;;5009248;28;25085;-72
2021/08/29 07:29:09;;;;;;;13.00;4.40;;;16.60;99.90;;;;;;5009787;28;25069;-72
2021/08/29 07:31:35;;;;;;;15.23;4.20;;;16.50;99.90;;;;;;5009605;28;25162;-74
2021/08/29 07:34:01;;;;;;;15.98;3.97;;;16.50;99.90;;;;;;5009803;28;25067;-73
2021/08/29 07:36:26;;;;;;;12.85;3.90;;;16.60;99.90;;;;;;5009369;28;25124;-72
2021/08/29 07:38:52;;;;;;;12.82;3.08;;;16.60;99.90;;;;;;5007572;28;25057;-75
2021/08/29 07:41:17;;;;;;;18.20;4.32;;;16.60;99.90;;;;;;5008971;28;25043;-75
2021/08/29 07:43:43;;;;;;;20.25;4.38;;;16.60;99.90;;;;;;4991540;28;25125;-73
2021/08/29 07:46:09;;;;;;;21.58;4.93;;;16.60;99.90;;;;;;5009823;28;25049;-75
2021/08/29 07:48:36;;;;;;;18.95;4.55;;;16.60;99.90;;;;;;5009104;28;25060;-74
2021/08/29 07:51:02;;;;;;;14.93;4.00;;;16.70;99.90;;;;;;5008948;28;25082;-75
2021/08/29 07:53:28;;;;;;;8.90;4.13;;;16.80;99.90;;;;;;5008226;28;25132;-73
2021/08/29 07:55:54;;;;;;;19.35;4.53;;;16.80;99.90;;;;;;5006319;28;25068;-72
2021/08/29 07:58:19;;;;;;;19.75;4.47;;;16.80;99.90;;;;;;5007929;28;25064;-75
2021/08/29 08:00:45;;;;;;;18.05;4.47;;;16.80;99.90;;;;;;5009391;28;25103;-76
2021/08/29 08:03:11;;;;;;;16.10;4.35;;;16.80;99.90;;;;;;5007806;28;25105;-74
2021/08/29 08:05:37;;;;;;;14.65;3.88;;;16.80;99.90;;;;;;5010230;28;25075;-73
2021/08/29 08:08:02;;;;;;;18.48;3.88;;;16.80;99.90;;;;;;5006705;28;25069;-72
2021/08/29 08:10:30;;;;;;;12.45;4.28;;;16.80;99.90;;;;;;5008814;28;25099;-71
2021/08/29 08:12:56;;;;;;;15.65;4.40;;;16.80;99.90;;;;;;5010374;28;25112;-75
2021/08/29 08:15:21;;;;;;;15.65;4.88;;;16.80;99.90;;;;;;5010774;28;25067;-73
2021/08/29 08:17:47;;;;;;;16.02;4.35;;;16.80;99.90;;;;;;5009477;28;25089;-76
2021/08/29 08:20:13;;;;;;;14.43;4.10;;;16.80;99.90;;;;;;5006847;28;25083;-73
2021/08/29 08:22:40;;;;;;;12.20;4.10;;;16.80;99.90;;;;;;5008004;28;25067;-72
2021/08/29 08:25:06;;;;;;;13.25;4.43;;;16.80;99.90;;;;;;5007499;28;25078;-74
2021/08/29 08:27:31;;;;;;;15.15;3.70;;;16.80;99.90;;;;;;5007731;28;25169;-72
2021/08/29 08:29:57;;;;;;;18.02;4.72;;;16.90;99.90;;;;;;5010261;28;25105;-73
2021/08/29 08:32:23;;;;;;;18.17;4.38;;;16.80;99.90;;;;;;5009215;28;25082;-71
2021/08/29 08:34:48;;;;;;;19.33;4.10;;;16.90;99.90;;;;;;5010104;28;25104;-72
2021/08/29 08:37:14;;;;;;;16.60;3.88;;;16.90;99.90;;;;;;5007255;28;25072;-76
2021/08/29 08:39:40;;;;;;;13.32;4.47;;;16.90;99.90;;;;;;5009304;28;25061;-73
2021/08/29 08:42:05;;;;;;;13.75;3.28;;;17.00;99.90;;;;;;5010477;28;25105;-73
2021/08/29 08:44:31;;;;;;;19.65;4.80;;;17.00;99.90;;;;;;5010881;28;25125;-72
2021/08/29 08:46:58;;;;;;;11.27;3.17;;;17.00;99.90;;;;;;5008339;28;25069;-72
2021/08/29 08:49:25;;;;;;;12.38;4.03;;;17.00;99.90;;;;;;5009183;28;25100;-72
2021/08/29 08:51:55;;;;;;;17.50;4.40;;;17.10;99.90;;;;;;5009906;28;25073;-72
2021/08/29 08:54:22;;;;;;;18.48;4.57;;;17.00;99.90;;;;;;5009374;28;25123;-73
2021/08/29 08:56:51;;;;;;;16.30;4.85;;;17.00;99.90;;;;;;5009624;28;25070;-73
2021/08/29 08:59:17;;;;;;;17.52;3.78;;;17.10;99.90;;;;;;5007938;28;25060;-73
2021/08/29 09:01:42;;;;;;;9.85;3.35;;;17.00;99.90;;;;;;5010306;28;25150;-74
2021/08/29 09:04:10;;;;;;;10.68;3.75;;;17.00;99.90;;;;;;5008890;28;25065;-72
2021/08/29 09:06:36;;;;;;;12.25;3.70;;;17.00;99.90;;;;;;5009159;28;25077;-72
2021/08/29 09:09:03;;;;;;;10.50;3.38;;;17.00;99.90;;;;;;5011078;28;25119;-76
2021/08/29 09:11:32;;;;;;;21.65;4.80;;;17.00;99.90;;;;;;5004173;28;25097;-72
2021/08/29 09:13:58;;;;;;;17.67;3.95;;;17.00;99.90;;;;;;5007256;28;25100;-74
2021/08/29 09:16:25;;;;;;;18.17;3.97;;;17.10;99.90;;;;;;5007148;28;25102;-70
2021/08/29 09:19:03;;;;;;;21.55;4.57;;;17.10;99.90;;;;;;5006966;28;25055;-71
2021/08/29 09:21:32;;;;;;;19.42;5.13;;;17.10;99.90;;;;;;5004811;28;25072;-75
2021/08/29 09:24:00;;;;;;;23.42;4.20;;;17.10;99.90;;;;;;5006946;28;25110;-73
2021/08/29 09:26:28;;;;;;;15.82;4.53;;;17.00;99.90;;;;;;5005900;28;25069;-72
2021/08/29 09:28:59;;;;;;;21.67;4.13;;;17.00;99.90;;;;;;5006045;28;25069;-72
2021/08/29 09:31:44;;;;;;;14.25;4.30;;;17.00;99.90;;;;;;5005915;28;25077;-74
2021/08/29 09:34:10;;;;;;;17.50;4.88;;;17.00;99.90;;;;;;5007636;28;25056;-73
2021/08/29 09:36:38;;;;;;;16.15;4.45;;;17.00;99.90;;;;;;5007161;28;25079;-70
2021/08/29 09:39:21;;;;;;;17.92;5.40;;;17.00;99.90;;;;;;5005818;28;25102;-73
2021/08/29 09:41:47;;;;;;;15.27;5.25;;;17.00;99.90;;;;;;5003992;28;25105;-72
2021/08/29 09:44:15;;;;;;;15.52;4.25;;;17.00;99.90;;;;;;5006532;28;25055;-73
2021/08/29 09:47:03;;;;;;;16.52;4.75;;;16.90;99.90;;;;;;5005410;28;25134;-70
2021/08/29 09:49:33;;;;;;;12.15;3.92;;;17.00;99.90;;;;;;5004686;28;25147;-72
2021/08/29 09:52:01;;;;;;;18.10;4.72;;;17.00;99.90;;;;;;5004599;28;25135;-72
2021/08/29 09:54:40;;;;;;;14.98;4.22;;;17.00;99.90;;;;;;5006089;28;25057;-71
2021/08/29 09:57:11;;;;;;;14.05;4.22;;;17.10;99.90;;;;;;5006888;28;25069;-73
2021/08/29 09:59:44;;;;;;;15.68;4.25;;;17.00;99.90;;;;;;4988161;28;25119;-72
2021/08/29 10:02:19;;;;;;;21.02;4.85;;;17.10;99.90;;;;;;5006584;28;25052;-74
2021/08/29 10:04:45;;;;;;;21.15;4.53;;;17.00;99.90;;;;;;5010578;28;25071;-74
2021/08/29 10:07:18;;;;;;;20.05;4.32;;;17.00;99.90;;;;;;5013605;28;25061;-73
2021/08/29 10:09:47;;;;;;;16.83;4.13;;;17.00;99.90;;;;;;5011846;28;25082;-70
2021/08/29 10:12:14;;;;;;;15.88;4.38;;;17.10;99.90;;;;;;5008110;28;25061;-72
2021/08/29 10:14:41;;;;;;;15.98;4.40;;;17.00;99.90;;;;;;5007591;28;25064;-73
2021/08/29 10:17:08;;;;;;;19.95;4.32;;;17.00;99.90;;;;;;5007557;28;25080;-75
2021/08/29 10:19:37;;;;;;;15.50;4.07;;;17.00;99.90;;;;;;5010395;28;25064;-71
2021/08/29 10:22:03;;;;;;;12.23;3.88;;;17.00;99.90;;;;;;5013723;28;25065;-74
2021/08/29 10:24:32;;;;;;;15.05;4.50;;;17.10;99.90;;;;;;5012622;28;25080;-72
2021/08/29 10:27:12;;;;;;;17.05;4.05;;;17.20;99.90;;;;;;5010900;28;25068;-72
2021/08/29 10:29:50;;;;;;;15.13;4.85;;;17.20;99.90;;;;;;5009779;28;25054;-73
2021/08/29 10:32:43;;;;;;;17.95;4.40;;;17.20;99.90;;;;;;5013574;28;25137;-73
2021/08/29 10:35:10;;;;;;;20.08;3.85;;;17.20;99.90;;;;;;5018329;28;25056;-74
2021/08/29 10:37:37;;;;;;;19.13;4.43;;;17.20;99.90;;;;;;5018364;28;25056;-72
2021/08/29 10:40:05;;;;;;;14.25;4.15;;;17.30;99.90;;;;;;5017328;28;25119;-73
2021/08/29 10:42:36;;;;;;;19.58;4.35;;;17.30;99.90;;;;;;5018545;28;25085;-73
2021/08/29 10:45:02;;;;;;;17.20;4.82;;;17.30;99.90;;;;;;5018781;28;25057;-71
2021/08/29 10:47:30;;;;;;;18.63;4.10;;;17.30;99.90;;;;;;5013189;28;25069;-73
2021/08/29 10:49:57;;;;;;;12.82;4.18;;;17.30;99.90;;;;;;5010222;28;25100;-70
2021/08/29 10:52:28;;;;;;;16.52;4.10;;;17.40;99.90;;;;;;5009865;28;25148;-72
2021/08/29 10:54:54;;;;;;;15.75;3.88;;;17.40;99.90;;;;;;5010366;28;25060;-72
2021/08/29 10:57:30;;;;;;;21.25;3.67;;;17.40;99.90;;;;;;5010605;28;25106;-74
2021/08/29 11:00:08;;;;;;;17.77;5.60;;;17.40;99.90;;;;;;5015212;28;25054;-72
2021/08/29 11:02:39;;;;;;;15.48;3.78;;;17.20;99.90;;;;;;5013495;28;25150;-74
2021/08/29 11:05:07;;;;;;;17.17;4.05;;;17.00;99.90;;;;;;5014588;28;25076;-73
2021/08/29 11:07:59;;;;;;;23.55;6.10;;;16.80;99.90;;;;;;5018167;28;25063;-72
2021/08/29 11:10:37;;;;;;;24.27;5.13;;;16.60;99.90;;;;;;5016369;28;25072;-72
2021/08/29 11:13:27;;;;;;;15.32;4.57;;;16.50;99.90;;;;;;5016241;28;25059;-74
2021/08/29 11:16:23;;;;;;;20.38;5.03;;;16.50;99.90;;;;;;5013061;28;25113;-73
2021/08/29 11:19:01;;;;;;;13.45;4.47;;;16.40;99.90;;;;;;4991258;28;25085;-74
2021/08/29 11:21:36;;;;;;;16.85;4.93;;;16.40;99.90;;;;;;5005162;28;25052;-74
2021/08/29 11:24:03;;;;;;;18.27;4.32;;;16.40;99.90;;;;;;4995625;28;25126;-76
2021/08/29 11:26:40;;;;;;;17.63;5.13;;;16.40;99.90;;;;;;4993681;28;25066;-74
2021/08/29 11:29:41;;;;;;;21.80;5.57;;;16.30;99.90;;;;;;5012011;28;25128;-72
2021/08/29 11:32:09;;;;;;;19.80;4.75;;;16.30;99.90;;;;;;5010528;28;25087;-75
2021/08/29 11:34:36;;;;;;;18.52;4.53;;;16.30;99.90;;;;;;5011843;28;25150;-73
2021/08/29 11:37:22;;;;;;;18.40;4.38;;;16.40;99.90;;;;;;5007624;28;25098;-74
2021/08/29 11:39:59;;;;;;;16.73;5.03;;;16.30;99.90;;;;;;5010604;28;25163;-75
2021/08/29 11:42:25;;;;;;;22.15;5.47;;;16.30;99.90;;;;;;5011453;28;25114;-74
2021/08/29 11:44:51;;;;;;;19.17;3.83;;;16.30;99.90;;;;;;5012231;28;25143;-70
2021/08/29 11:47:16;;;;;;;26.27;5.38;;;16.20;99.90;;;;;;5010649;28;25055;-74
2021/08/29 11:49:42;;;;;;;16.65;4.60;;;16.20;99.90;;;;;;5012518;28;25145;-74
2021/08/29 11:52:07;;;;;;;20.63;5.18;;;16.30;99.90;;;;;;5013769;28;25052;-75
2021/08/29 11:54:33;;;;;;;20.05;5.07;;;16.20;99.90;;;;;;5013802;28;25117;-74
2021/08/29 11:57:00;;;;;;;17.25;5.40;;;16.20;99.90;;;;;;5012084;28;25133;-74
2021/08/29 11:59:28;;;;;;;19.98;4.63;;;16.30;99.90;;;;;;5009649;28;25100;-73
2021/08/29 12:01:57;;;;;;;21.80;5.18;;;16.40;99.90;;;;;;5009724;28;25114;-75
2021/08/29 12:04:23;;;;;;;20.90;4.43;;;16.50;99.90;;;;;;5009587;28;25075;-73
2021/08/29 12:07:05;;;;;;;16.30;4.72;;;16.50;99.90;;;;;;5009277;28;25088;-73
2021/08/29 12:09:42;;;;;;;14.35;3.53;;;16.60;99.90;;;;;;5006702;28;25069;-73
2021/08/29 12:12:18;;;;;;;17.08;4.10;;;16.60;99.90;;;;;;5010263;28;25079;-73
2021/08/29 12:14:44;;;;;;;19.30;5.05;;;16.60;99.90;;;;;;5009870;28;25104;-71
2021/08/29 12:17:13;;;;;;;20.98;4.97;;;16.70;99.90;;;;;;5006395;28;25168;-71
2021/08/29 12:19:40;;;;;;;19.15;5.72;;;16.70;99.90;;;;;;5006894;28;25094;-74
2021/08/29 12:22:09;;;;;;;25.85;5.38;;;16.80;99.90;;;;;;5008044;28;25090;-76
2021/08/29 12:24:42;;;;;;;18.30;4.65;;;16.60;99.90;;;;;;5007466;28;25072;-72
2021/08/29 12:27:21;;;;;;;27.92;5.38;;;16.60;99.90;;;;;;5009446;28;24716;-72
2021/08/29 12:29:52;;;;;;;24.05;5.13;;;16.60;99.90;;;;;;5008510;28;25064;-73
2021/08/29 12:32:21;;;;;;;27.48;5.38;;;16.60;99.90;;;;;;5009346;28;25057;-74
2021/08/29 12:34:54;;;;;;;24.60;4.85;;;16.60;99.90;;;;;;5008821;28;25112;-75
2021/08/29 12:37:20;;;;;;;22.77;5.70;;;16.60;99.90;;;;;;5005496;28;25054;-75
2021/08/29 12:40:06;;;;;;;23.00;4.75;;;16.60;99.90;;;;;;5009168;28;25081;-73
2021/08/29 12:42:33;;;;;;;18.00;5.00;;;16.60;99.90;;;;;;5001198;28;25122;-72
2021/08/29 12:45:00;;;;;;;22.88;4.82;;;16.50;99.90;;;;;;4990991;28;25076;-73